Latest Weather Observations for Scoresby

IDV60801

Issued at 11:32 am EST Friday 29 July 2016 (issued every 30 minutes, with the page automatically refreshed every 10 minutes)

About weather observations | Map of weather stations | Latest weather observations for VIC | Other Formats
Station Details ID: 086104 Name: SCORESBY RESEARCH INSTITUTE Lat: -37.87 Lon: 145.26 Height: 80.0 m
Data from the previous 72 hours. | See also: Recent months at Scoresby
Date/Time
EST
Temp
°C
App
Temp
°C
Dew
Point
°C
Rel
Hum
%
Delta-T
°C
Wind Press
QNH
hPa
Press
MSL
hPa
Rain since
9am
mm
Dir  Spd
km/h
Gust
km/h
Spd
kts
Gust
kts
29/11:30am 12.2 9.5 7.3 72 2.4 N 11 20 6 11 - - 0.0
29/11:00am 11.8 8.4 7.5 75 2.1 N 15 26 8 14 - - 0.0
29/10:30am 12.1 8.6 7.2 72 2.4 N 15 24 8 13 - - 0.0
29/10:00am 11.6 7.7 7.1 74 2.2 N 17 32 9 17 - - 0.0
29/09:30am 11.5 8.0 7.2 75 2.1 N 15 32 8 17 - - 0.0
29/09:00am 11.3 7.7 6.8 74 2.1 N 15 24 8 13 - - 0.2
29/08:30am 11.1 7.5 6.6 74 2.1 N 15 28 8 15 - - 0.2
29/08:00am 11.1 7.4 6.5 73 2.2 N 15 28 8 15 - - 0.2
29/07:30am 11.1 7.8 6.3 72 2.3 N 13 24 7 13 - - 0.2
29/07:00am 11.1 7.4 6.5 73 2.2 N 15 28 8 15 - - 0.2
29/06:30am 11.0 7.3 6.2 72 2.3 N 15 28 8 15 - - 0.2
29/06:00am 11.1 6.6 6.3 72 2.3 N 19 33 10 18 - - 0.2
29/05:30am 11.2 7.5 6.1 71 2.4 N 15 24 8 13 - - 0.2
29/05:00am 11.1 7.8 6.3 72 2.3 N 13 24 7 13 - - 0.2
29/04:30am 10.9 7.6 6.3 73 2.2 N 13 30 7 16 - - 0.2
29/04:00am 10.8 7.5 6.2 73 2.2 N 13 24 7 13 - - 0.2
29/03:30am 10.7 7.4 6.3 74 2.1 N 13 24 7 13 - - 0.2
29/03:00am 10.5 7.2 6.3 75 2.0 N 13 26 7 14 - - 0.2
29/02:30am 10.4 7.5 6.4 76 1.9 N 11 19 6 10 - - 0.2
29/02:00am 10.5 7.1 6.1 74 2.1 N 13 22 7 12 - - 0.0
29/01:30am 11.2 8.6 6.3 72 2.3 N 9 19 5 10 - - 0.0
29/01:00am 11.3 8.3 6.2 71 2.4 N 11 20 6 11 - - 0.0
29/12:30am 11.2 8.3 6.3 72 2.3 N 11 19 6 10 - - 0.0
29/12:00am 11.2 8.6 6.3 72 2.3 N 9 19 5 10 - - 0.0
 
Date/Time
EST
Temp
°C
App
Temp
°C
Dew
Point
°C
Rel
Hum
%
Delta-T
°C
Wind Press
QNH
hPa
Press
MSL
hPa
Rain since
9am
mm
Dir  Spd
km/h
Gust
km/h
Spd
kts
Gust
kts
28/11:30pm 11.2 8.6 6.3 72 2.3 N 9 19 5 10 - - 0.0
28/11:00pm 11.3 8.3 6.2 71 2.4 NNE 11 20 6 11 - - 0.0
28/10:30pm 11.5 8.1 6.0 69 2.6 N 13 22 7 12 - - 0.0
28/10:00pm 11.5 8.5 5.8 68 2.7 N 11 24 6 13 - - 0.0
28/09:30pm 11.6 8.2 5.9 68 2.7 N 13 22 7 12 - - 0.0
28/09:00pm 11.7 8.7 5.8 67 2.8 NNE 11 19 6 10 - - 0.0
28/08:30pm 11.8 8.7 5.7 66 2.8 NNE 11 20 6 11 - - 0.0
28/08:00pm 11.7 8.7 5.8 67 2.8 NNE 11 19 6 10 - - 0.0
28/07:30pm 11.9 8.8 5.5 65 3.0 N 11 20 6 11 - - 0.0
28/07:00pm 11.6 8.9 5.7 67 2.8 NNE 9 17 5 9 - - 0.0
28/06:30pm 11.6 8.9 5.7 67 2.8 NNE 9 15 5 8 - - 0.0
28/06:00pm 11.7 9.0 5.8 67 2.8 N 9 19 5 10 - - 0.0
28/05:30pm 11.9 9.3 6.2 68 2.7 N 9 19 5 10 - - 0.0
28/05:00pm 12.2 9.3 6.5 68 2.7 N 11 24 6 13 - - 0.0
28/04:30pm 12.5 9.2 6.5 67 2.9 N 13 26 7 14 - - 0.0
28/04:00pm 12.6 9.3 6.4 66 3.0 N 13 24 7 13 - - 0.0
28/03:30pm 12.9 9.6 6.5 65 3.1 N 13 30 7 16 - - 0.0
28/03:00pm 12.8 9.5 6.4 65 3.1 N 13 20 7 11 - - 0.0
28/02:30pm 12.3 9.0 6.4 67 2.8 N 13 24 7 13 - - 0.0
28/02:00pm 12.4 9.9 6.7 68 2.7 N 9 20 5 11 - - 0.0
28/01:30pm 12.6 9.3 6.4 66 3.0 N 13 22 7 12 - - 0.0
28/01:00pm 12.6 9.6 6.2 65 3.0 N 11 24 6 13 - - 0.0
28/12:30pm 12.5 8.8 6.1 65 3.0 NNW 15 24 8 13 - - 0.0
28/12:00pm 12.7 9.2 5.6 62 3.3 NNW 13 26 7 14 - - 0.0
28/11:30am 12.6 8.8 6.0 64 3.1 N 15 22 8 12 - - 0.0
28/11:00am 11.7 8.3 6.0 68 2.7 N 13 22 7 12 - - 0.0
28/10:30am 11.3 8.3 5.8 69 2.6 N 11 20 6 11 - - 0.0
28/10:00am 11.0 8.3 5.7 70 2.5 N 9 15 5 8 - - 0.0
28/09:30am 10.4 7.7 5.6 72 2.2 NNE 9 17 5 9 - - 0.0
28/09:00am 9.8 6.6 5.0 72 2.2 NNE 11 19 6 10 - - 0.8
28/08:30am 9.4 6.1 4.8 73 2.1 NNE 11 17 6 9 - - 0.8
28/08:00am 9.1 6.2 4.9 75 1.9 NNE 9 15 5 8 - - 0.8
28/07:30am 9.0 6.1 4.8 75 1.9 NNE 9 17 5 9 - - 0.8
28/07:00am 9.0 6.1 4.8 75 1.9 NNE 9 15 5 8 - - 0.8
28/06:30am 8.8 6.3 4.6 75 1.9 NNE 7 13 4 7 - - 0.8
28/06:00am 8.6 6.1 4.6 76 1.8 NNE 7 15 4 8 - - 0.8
28/05:30am 8.6 6.1 4.8 77 1.7 NNE 7 15 4 8 - - 0.8
28/05:00am 8.6 6.1 4.6 76 1.8 NNE 7 11 4 6 - - 0.8
28/04:30am 8.7 5.8 4.7 76 1.8 NE 9 15 5 8 - - 0.8
28/04:00am 8.6 5.7 4.6 76 1.8 NNE 9 15 5 8 - - 0.8
28/03:30am 8.1 5.6 4.5 78 1.6 NNE 7 11 4 6 - - 0.8
28/03:00am 8.5 6.1 4.5 76 1.8 NNE 6 11 3 6 - - 0.8
28/02:30am 8.8 6.2 4.4 74 1.9 NNE 7 13 4 7 - - 0.8
28/02:00am 9.1 6.6 4.5 73 2.0 N 7 13 4 7 - - 0.8
28/01:30am 9.0 6.6 4.4 73 2.0 N 6 9 3 5 - - 0.8
28/01:00am 8.7 6.1 4.1 73 2.0 NNE 7 15 4 8 - - 0.8
28/12:30am 8.9 6.5 4.1 72 2.1 N 6 11 3 6 - - 0.8
28/12:00am 8.9 6.5 4.3 73 2.0 N 6 9 3 5 - - 0.8
 
Date/Time
EST
Temp
°C
App
Temp
°C
Dew
Point
°C
Rel
Hum
%
Delta-T
°C
Wind Press
QNH
hPa
Press
MSL
hPa
Rain since
9am
mm
Dir  Spd
km/h
Gust
km/h
Spd
kts
Gust
kts
27/11:30pm 9.1 7.1 4.5 73 2.0 N 4 11 2 6 - - 0.8
27/11:00pm 9.3 6.9 4.5 72 2.1 N 6 9 3 5 - - 0.8
27/10:30pm 9.2 6.6 4.4 72 2.1 NNW 7 13 4 7 - - 0.8
27/10:00pm 9.3 6.7 4.3 71 2.2 NNW 7 17 4 9 - - 0.8
27/09:30pm 9.5 6.9 4.3 70 2.3 NW 7 19 4 10 - - 0.8
27/09:00pm 9.6 7.0 4.4 70 2.3 NW 7 19 4 10 - - 0.8
27/08:30pm 9.7 6.7 4.3 69 2.4 WNW 9 19 5 10 - - 0.8
27/08:00pm 9.8 6.4 4.0 67 2.6 WNW 11 22 6 12 - - 0.8
27/07:30pm 9.9 6.9 4.1 67 2.6 W 9 20 5 11 - - 0.8
27/07:00pm 9.8 6.8 4.0 67 2.6 WNW 9 15 5 8 - - 0.8
27/06:30pm 9.5 7.0 4.5 71 2.2 WNW 7 11 4 6 - - 0.8
27/06:00pm 9.1 6.1 4.3 72 2.1 WNW 9 15 5 8 - - 0.8
27/05:30pm 9.4 5.3 4.6 72 2.1 W 15 28 8 15 - - 0.8
27/05:00pm 10.0 6.6 4.0 66 2.7 W 11 20 6 11 - - 0.8
27/04:30pm 10.0 6.3 4.6 69 2.4 W 13 20 7 11 - - 0.8
27/04:00pm 10.7 5.9 2.8 58 3.4 W 17 26 9 14 - - 0.8
27/03:30pm 11.0 6.3 3.3 59 3.4 W 17 28 9 15 - - 0.8
27/03:00pm 11.6 7.8 3.9 59 3.4 W 13 26 7 14 - - 0.8
27/02:30pm 11.2 6.9 3.5 59 3.4 W 15 28 8 15 - - 0.8
27/02:00pm 10.6 6.1 4.3 65 2.8 WSW 17 32 9 17 - - 0.8
27/01:30pm 10.0 6.7 6.3 78 1.7 WSW 13 24 7 13 - - 0.8
27/01:00pm 8.5 6.1 6.8 89 0.8 SSW 9 17 5 9 - - 0.8
27/12:30pm 10.8 6.8 4.7 66 2.8 W 15 24 8 13 - - 0.8
27/12:00pm 11.2 9.0 6.1 71 2.4 W 7 15 4 8 - - 0.8
27/11:30am 9.4 5.7 6.1 80 1.5 WSW 15 26 8 14 - - 0.8
27/11:00am 10.2 8.0 7.8 85 1.2 W 9 15 5 8 - - 0.6
27/10:30am 9.4 6.7 7.3 87 1.0 SW 11 19 6 10 - - 0.6
27/10:00am 9.2 6.5 7.2 87 0.9 SW 11 19 6 10 - - 0.2
27/09:30am 9.2 6.7 8.0 92 0.6 WSW 11 15 6 8 - - 0.2
27/09:00am 9.1 6.2 8.0 93 0.5 WSW 13 22 7 12 - - 1.8
27/08:30am 8.9 6.7 7.8 93 0.5 W 9 20 5 11 - - 1.2
27/08:00am 9.0 7.4 6.4 84 1.2 NW 4 9 2 5 - - 0.0
27/07:30am 9.0 7.0 6.1 82 1.3 N 6 13 3 7 - - 0.0
27/07:00am 8.5 7.2 6.1 85 1.1 N 2 9 1 5 - - 0.0
27/06:30am 8.5 6.5 6.3 86 1.0 N 6 9 3 5 - - 0.0
27/06:00am 8.7 6.6 5.8 82 1.3 NNE 6 11 3 6 - - 0.0
27/05:30am 8.8 6.1 5.5 80 1.5 NNW 9 17 5 9 - - 0.0
27/05:00am 9.1 5.9 5.1 76 1.8 N 11 22 6 12 - - 0.0
27/04:30am 8.9 6.6 4.7 75 1.9 N 6 11 3 6 - - 0.0
27/04:00am 8.8 5.9 4.6 75 1.9 N 9 19 5 10 - - 0.0
27/03:30am 8.3 5.8 4.5 77 1.7 NNE 7 15 4 8 - - 0.0
27/03:00am 8.3 5.8 4.5 77 1.7 NNE 7 13 4 7 - - 0.0
27/02:30am 8.7 5.4 4.3 74 1.9 NNE 11 20 6 11 - - 0.0
27/02:00am 9.1 5.0 4.1 71 2.2 NNE 15 26 8 14 - - 0.0
27/01:30am 9.2 5.0 4.0 70 2.3 NNE 15 28 8 15 - - 0.0
27/01:00am 9.3 4.7 3.7 68 2.4 NNE 17 30 9 16 - - 0.0
27/12:30am 9.4 4.4 3.6 67 2.5 NNE 19 28 10 15 - - 0.0
27/12:00am 9.5 4.5 3.5 66 2.6 NNE 19 30 10 16 - - 0.0
 
Date/Time
EST
Temp
°C
App
Temp
°C
Dew
Point
°C
Rel
Hum
%
Delta-T
°C
Wind Press
QNH
hPa
Press
MSL
hPa
Rain since
9am
mm
Dir  Spd
km/h
Gust
km/h
Spd
kts
Gust
kts
26/11:30pm 9.6 4.6 3.4 65 2.7 NNE 19 30 10 16 - - 0.0
26/11:00pm 9.9 4.6 3.2 63 2.9 NNE 20 35 11 19 - - 0.0
26/10:30pm 9.5 5.2 3.3 65 2.7 NNE 15 28 8 15 - - 0.0
26/10:00pm 9.6 5.2 2.9 63 2.9 NNE 15 30 8 16 - - 0.0
26/09:30pm 9.7 4.6 2.8 62 3.0 N 19 39 10 21 - - 0.0
26/09:00pm 9.6 4.5 3.1 64 2.8 N 19 35 10 19 - - 0.0
26/08:30pm 9.5 4.5 3.5 66 2.6 N 19 35 10 19 - - 0.0
26/08:00pm 9.2 5.0 3.6 68 2.4 N 15 26 8 14 - - 0.0
26/07:30pm 8.9 4.7 3.7 70 2.3 N 15 24 8 13 - - 0.0
26/07:00pm 8.5 4.7 3.9 73 2.0 NNE 13 26 7 14 - - 0.0
26/06:30pm 8.4 4.1 3.5 71 2.1 NNE 15 24 8 13 - - 0.0
26/06:00pm 8.6 4.6 2.8 67 2.5 NNE 13 24 7 13 - - 0.0
26/05:30pm 9.1 4.4 2.9 65 2.7 NNE 17 33 9 18 - - 0.0
26/05:00pm 9.3 4.6 2.9 64 2.7 N 17 28 9 15 - - 0.0
26/04:30pm 9.3 4.9 2.9 64 2.7 N 15 28 8 15 - - 0.0
26/04:00pm 9.3 4.9 2.6 63 2.9 N 15 28 8 15 - - 0.0
26/03:30pm 9.4 4.6 2.7 63 2.9 N 17 35 9 19 - - 0.0
26/03:00pm 9.0 4.6 2.6 64 2.7 NNE 15 26 8 14 - - 0.0
26/02:30pm 9.0 4.1 2.3 63 2.8 N 17 30 9 16 - - 0.0
26/02:00pm 9.0 4.6 2.6 64 2.7 N 15 28 8 15 - - 0.0
26/01:30pm 8.9 4.1 2.5 64 2.7 N 17 33 9 18 - - 0.0
26/01:00pm 9.4 5.0 2.7 63 2.9 NNW 15 33 8 18 - - 0.0
26/12:30pm 8.6 2.7 2.0 63 2.8 NNW 22 39 12 21 - - 0.0
26/12:00pm 9.0 4.5 2.1 62 2.9 N 15 26 8 14 - - 0.0

Other Formats:

Comma delimited format used in spreadsheet applications
http://www.bom.gov.au/fwo/IDV60801/IDV60801.95867.axf

JavaScript Object Notation format (JSON) in row-major order
http://www.bom.gov.au/fwo/IDV60801/IDV60801.95867.json